createdAt,value
2017-10-03T00:00:16.827Z,15.40
2017-10-03T00:02:45.543Z,15.40
2017-10-03T00:05:13.062Z,15.40
2017-10-03T00:07:40.881Z,15.30
2017-10-03T00:10:09.707Z,15.20
2017-10-03T00:12:37.158Z,15.20
2017-10-03T00:15:04.856Z,15.20
2017-10-03T00:17:33.518Z,15.10
2017-10-03T00:20:01.773Z,15.00
2017-10-03T00:22:30.016Z,15.00
2017-10-03T00:24:57.526Z,14.90
2017-10-03T00:27:25.423Z,15.00
2017-10-03T00:29:52.916Z,14.90
2017-10-03T00:32:20.408Z,14.90
2017-10-03T00:34:49.093Z,14.80
2017-10-03T00:37:16.591Z,14.80
2017-10-03T00:39:44.062Z,14.80
2017-10-03T00:42:12.349Z,14.80
2017-10-03T00:44:39.840Z,14.80
2017-10-03T00:47:07.841Z,14.80
2017-10-03T00:49:35.414Z,14.80
2017-10-03T00:52:03.111Z,14.80
2017-10-03T00:54:31.339Z,14.80
2017-10-03T00:57:00.291Z,14.70
2017-10-03T00:59:28.056Z,14.80
2017-10-03T01:01:55.880Z,14.80
2017-10-03T01:04:23.332Z,14.80
2017-10-03T01:06:51.427Z,14.80
2017-10-03T01:09:21.939Z,14.80
2017-10-03T01:11:49.379Z,14.80
2017-10-03T01:14:17.617Z,14.60
2017-10-03T01:16:45.076Z,14.60
2017-10-03T01:19:12.542Z,14.60
2017-10-03T01:21:40.028Z,14.60
2017-10-03T01:24:08.108Z,14.60
2017-10-03T01:26:37.933Z,14.50
2017-10-03T01:29:06.186Z,14.50
2017-10-03T01:31:34.755Z,14.50
2017-10-03T01:34:03.108Z,14.40
2017-10-03T01:36:30.602Z,14.40
2017-10-03T01:38:58.122Z,14.30
2017-10-03T01:41:25.949Z,14.30
2017-10-03T01:43:54.300Z,14.40
2017-10-03T01:46:22.620Z,14.40
2017-10-03T01:48:51.233Z,14.40
2017-10-03T01:51:19.455Z,14.40
2017-10-03T01:53:47.257Z,14.40
2017-10-03T01:56:15.793Z,14.40
2017-10-03T01:58:43.649Z,14.40
2017-10-03T02:01:11.101Z,14.50
2017-10-03T02:03:39.726Z,14.50
2017-10-03T02:06:07.603Z,14.50
2017-10-03T02:08:35.565Z,14.50
2017-10-03T02:11:03.480Z,14.50
2017-10-03T02:13:30.927Z,14.40
2017-10-03T02:15:58.415Z,14.40
2017-10-03T02:18:26.699Z,14.40
2017-10-03T02:20:54.194Z,14.40
2017-10-03T02:23:22.251Z,14.40
2017-10-03T02:25:50.205Z,14.40
2017-10-03T02:28:17.654Z,14.40
2017-10-03T02:30:46.659Z,14.40
2017-10-03T02:33:14.359Z,14.40
2017-10-03T02:35:41.853Z,14.40
2017-10-03T02:38:09.312Z,14.30
2017-10-03T02:40:37.098Z,14.30
2017-10-03T02:43:04.558Z,14.30
2017-10-03T02:45:32.775Z,14.30
2017-10-03T02:48:00.600Z,14.30
2017-10-03T02:50:28.064Z,14.30
2017-10-03T02:52:55.569Z,14.30
2017-10-03T02:55:23.601Z,14.30
2017-10-03T02:57:52.560Z,14.20
2017-10-03T03:00:20.485Z,14.10
2017-10-03T03:02:48.379Z,14.10
2017-10-03T03:05:16.421Z,14.20
2017-10-03T03:07:44.407Z,14.20
2017-10-03T03:10:13.456Z,14.10
2017-10-03T03:12:41.460Z,14.10
2017-10-03T03:15:08.950Z,14.10
2017-10-03T03:17:36.391Z,14.20
2017-10-03T03:20:04.995Z,14.20
2017-10-03T03:22:32.449Z,14.20
2017-10-03T03:24:59.921Z,14.20
2017-10-03T03:27:27.720Z,14.10
2017-10-03T03:29:55.185Z,14.10
2017-10-03T03:32:22.940Z,14.10
2017-10-03T03:34:50.436Z,14.10
2017-10-03T03:37:18.837Z,14.00
2017-10-03T03:39:46.309Z,14.10
2017-10-03T03:42:13.791Z,14.00
2017-10-03T03:44:42.607Z,14.00
2017-10-03T03:47:10.503Z,14.00
2017-10-03T03:49:38.726Z,13.90
2017-10-03T03:52:06.279Z,13.90
2017-10-03T03:54:34.236Z,13.90
2017-10-03T03:57:02.215Z,13.90
2017-10-03T03:59:30.873Z,13.90
2017-10-03T04:01:58.624Z,13.90
2017-10-03T04:04:26.850Z,13.80
2017-10-03T04:06:54.926Z,13.80
2017-10-03T04:09:22.878Z,13.80
2017-10-03T04:11:50.760Z,13.80
2017-10-03T04:14:19.331Z,13.80
2017-10-03T04:16:46.912Z,13.80
2017-10-03T04:19:14.796Z,13.80
2017-10-03T04:21:42.243Z,13.80
2017-10-03T04:24:10.497Z,13.80
2017-10-03T04:26:38.459Z,13.80
2017-10-03T04:29:06.719Z,13.80
2017-10-03T04:31:35.026Z,13.80
2017-10-03T04:34:02.513Z,13.80
2017-10-03T04:36:30.095Z,13.80
2017-10-03T04:38:57.682Z,13.80
2017-10-03T04:41:25.170Z,13.80
2017-10-03T04:43:53.607Z,13.70
2017-10-03T04:46:21.084Z,13.70
2017-10-03T04:48:48.938Z,13.70
2017-10-03T04:51:16.907Z,13.70
2017-10-03T04:53:44.373Z,13.70
2017-10-03T04:56:12.772Z,13.70
2017-10-03T04:58:40.945Z,13.70
2017-10-03T05:01:08.422Z,13.70
2017-10-03T05:03:36.267Z,13.60
2017-10-03T05:06:04.072Z,13.70
2017-10-03T05:08:32.675Z,13.70
2017-10-03T05:11:00.740Z,13.70
2017-10-03T05:13:29.939Z,13.70
2017-10-03T05:15:58.257Z,13.70
2017-10-03T05:18:25.926Z,13.70
2017-10-03T05:20:53.707Z,13.70
2017-10-03T05:23:21.164Z,13.80
2017-10-03T05:25:49.831Z,13.70
2017-10-03T05:28:18.082Z,13.70
2017-10-03T05:30:45.554Z,13.70
2017-10-03T05:33:13.485Z,13.70
2017-10-03T05:35:41.716Z,13.70
2017-10-03T05:38:09.194Z,13.70
2017-10-03T05:40:37.518Z,13.70
2017-10-03T05:43:05.729Z,13.70
2017-10-03T05:45:33.200Z,13.70
2017-10-03T05:48:01.205Z,13.70
2017-10-03T05:50:29.857Z,13.80
2017-10-03T05:52:57.343Z,13.70
2017-10-03T05:55:25.367Z,13.80
2017-10-03T05:57:54.129Z,13.70
2017-10-03T06:00:22.002Z,13.70
2017-10-03T06:02:50.504Z,13.70
2017-10-03T06:05:18.612Z,13.70
2017-10-03T06:07:47.374Z,13.60
2017-10-03T06:10:14.848Z,13.60
2017-10-03T06:12:42.587Z,13.60
2017-10-03T06:15:10.864Z,13.60
2017-10-03T06:17:38.632Z,13.60
2017-10-03T06:20:06.190Z,13.60
2017-10-03T06:22:33.640Z,13.60
2017-10-03T06:25:01.239Z,13.60
2017-10-03T06:27:29.126Z,13.60
2017-10-03T06:29:56.605Z,13.60
2017-10-03T06:32:25.017Z,13.60
2017-10-03T06:34:52.460Z,13.60
2017-10-03T06:37:20.006Z,13.60
2017-10-03T06:39:47.546Z,13.60
2017-10-03T06:42:15.093Z,13.60
2017-10-03T06:44:42.562Z,13.60
2017-10-03T06:47:10.347Z,13.70
2017-10-03T06:49:38.294Z,13.70
2017-10-03T06:52:06.152Z,13.70
2017-10-03T06:54:33.618Z,13.70
2017-10-03T06:57:01.927Z,13.70
2017-10-03T06:59:30.698Z,13.70
2017-10-03T07:01:59.572Z,13.80
2017-10-03T07:04:28.239Z,13.80
2017-10-03T07:06:56.828Z,13.80
2017-10-03T07:09:25.039Z,13.80
2017-10-03T07:11:53.946Z,13.80
2017-10-03T07:14:22.158Z,13.80
2017-10-03T07:16:49.732Z,13.80
2017-10-03T07:19:17.195Z,13.80
2017-10-03T07:21:45.420Z,13.90
2017-10-03T07:24:13.042Z,13.90
2017-10-03T07:26:40.873Z,13.90
2017-10-03T07:29:08.888Z,14.00
2017-10-03T07:31:36.344Z,14.00
2017-10-03T07:34:03.801Z,14.00
2017-10-03T07:36:31.688Z,14.10
2017-10-03T07:39:02.618Z,14.10
2017-10-03T07:41:30.498Z,14.10
2017-10-03T07:43:57.966Z,14.10
2017-10-03T07:46:25.998Z,14.10
2017-10-03T07:48:54.620Z,14.20
2017-10-03T07:51:22.105Z,14.20
2017-10-03T07:53:50.333Z,14.20
2017-10-03T07:56:18.259Z,14.20
2017-10-03T07:58:46.898Z,14.30
2017-10-03T08:01:15.143Z,14.30
2017-10-03T08:03:43.738Z,14.30
2017-10-03T08:06:11.414Z,14.20
2017-10-03T08:08:39.161Z,14.30
2017-10-03T08:11:07.133Z,14.20
2017-10-03T08:13:35.137Z,14.30
2017-10-03T08:16:02.712Z,14.20
2017-10-03T08:18:30.191Z,14.20
2017-10-03T08:20:57.656Z,14.20
2017-10-03T08:23:25.317Z,14.20
2017-10-03T08:25:53.227Z,14.30
2017-10-03T08:28:20.713Z,14.30
2017-10-03T08:30:48.164Z,14.40
2017-10-03T08:33:16.095Z,14.40
2017-10-03T08:35:43.571Z,14.50
2017-10-03T08:38:11.321Z,14.60
2017-10-03T08:40:38.802Z,14.50
2017-10-03T08:43:07.029Z,14.50
2017-10-03T08:45:34.512Z,14.50
2017-10-03T08:48:03.171Z,14.50
2017-10-03T08:50:31.444Z,14.50
2017-10-03T08:53:00.129Z,14.50
2017-10-03T08:55:28.183Z,14.50
2017-10-03T08:57:56.032Z,14.60
2017-10-03T09:00:23.531Z,14.70
2017-10-03T09:02:51.296Z,14.70
2017-10-03T09:05:19.522Z,14.90
2017-10-03T09:07:47.346Z,14.90
2017-10-03T09:10:14.813Z,15.00
2017-10-03T09:12:43.869Z,15.00
2017-10-03T09:15:11.373Z,15.00
2017-10-03T09:17:39.827Z,15.00
2017-10-03T09:20:07.343Z,15.00
2017-10-03T09:22:35.253Z,15.00
2017-10-03T09:25:02.729Z,15.00
2017-10-03T09:27:32.376Z,15.00
2017-10-03T09:29:59.857Z,15.10
2017-10-03T09:32:27.669Z,15.20
2017-10-03T09:34:55.154Z,15.30
2017-10-03T09:37:22.620Z,15.30
2017-10-03T09:39:50.102Z,15.40
2017-10-03T09:42:17.553Z,15.50
2017-10-03T09:44:45.119Z,15.50
2017-10-03T09:47:13.112Z,15.60
2017-10-03T09:49:41.354Z,15.90
2017-10-03T09:52:08.876Z,15.90
2017-10-03T09:54:36.370Z,16.00
2017-10-03T09:57:04.218Z,16.00
2017-10-03T09:59:32.704Z,16.10
2017-10-03T10:02:00.650Z,16.10
2017-10-03T10:04:28.142Z,16.20
2017-10-03T10:06:55.962Z,16.30
2017-10-03T10:09:23.422Z,16.40
2017-10-03T10:11:51.063Z,16.40
2017-10-03T10:14:18.854Z,16.50
2017-10-03T10:16:47.172Z,16.50
2017-10-03T10:19:14.977Z,16.40
2017-10-03T10:21:43.212Z,16.50
2017-10-03T10:24:10.697Z,16.40
2017-10-03T10:26:38.555Z,16.50
2017-10-03T10:29:06.419Z,16.40
2017-10-03T10:31:34.073Z,16.30
2017-10-03T10:34:01.524Z,16.40
2017-10-03T10:36:29.049Z,16.30
2017-10-03T10:38:56.590Z,16.30
2017-10-03T10:41:24.230Z,16.30
2017-10-03T10:43:51.987Z,16.20
2017-10-03T10:46:19.703Z,16.20
2017-10-03T10:48:47.600Z,16.20
2017-10-03T10:51:15.536Z,16.20
2017-10-03T10:53:43.078Z,16.30
2017-10-03T10:56:11.143Z,16.30
2017-10-03T10:58:39.053Z,16.40
2017-10-03T11:01:06.528Z,16.50
2017-10-03T11:03:34.483Z,16.80
2017-10-03T11:06:02.023Z,16.90
2017-10-03T11:08:30.013Z,17.00
2017-10-03T11:10:58.267Z,17.10
2017-10-03T11:13:26.499Z,17.10
2017-10-03T11:15:54.169Z,17.20
2017-10-03T11:18:22.816Z,17.30
2017-10-03T11:20:50.624Z,17.40
2017-10-03T11:23:30.820Z,17.70
2017-10-03T11:25:58.999Z,17.60
2017-10-03T11:28:26.498Z,17.70
2017-10-03T11:30:53.991Z,17.70
2017-10-03T11:33:21.542Z,17.80
2017-10-03T11:35:49.778Z,18.00
2017-10-03T11:38:17.391Z,18.00
2017-10-03T11:40:45.173Z,18.10
2017-10-03T11:43:12.822Z,18.20
2017-10-03T11:45:40.296Z,18.20
2017-10-03T11:48:07.980Z,18.30
2017-10-03T11:50:35.818Z,18.30
2017-10-03T11:53:03.727Z,18.40
2017-10-03T11:55:32.375Z,18.60
2017-10-03T11:58:00.934Z,18.50
2017-10-03T12:00:28.411Z,18.50
2017-10-03T12:02:57.166Z,18.40
2017-10-03T12:05:25.309Z,18.40
2017-10-03T12:07:53.528Z,18.40
2017-10-03T12:10:21.224Z,18.40
2017-10-03T12:12:48.668Z,18.30
2017-10-03T12:15:17.599Z,18.20
2017-10-03T12:17:45.434Z,18.20
2017-10-03T12:20:12.872Z,17.90
2017-10-03T12:22:40.347Z,17.60
2017-10-03T12:25:07.787Z,17.50
2017-10-03T12:27:35.563Z,17.20
2017-10-03T12:30:03.790Z,17.00
2017-10-03T12:32:31.351Z,16.90
2017-10-03T12:34:58.813Z,17.10
2017-10-03T12:37:27.049Z,17.60
2017-10-03T12:39:55.067Z,17.60
2017-10-03T12:42:22.617Z,17.80
2017-10-03T12:44:51.433Z,18.10
2017-10-03T12:47:19.335Z,18.40
2017-10-03T12:49:46.930Z,18.50
2017-10-03T12:52:15.206Z,18.60
2017-10-03T12:54:43.478Z,19.10
2017-10-03T12:57:13.098Z,19.30
2017-10-03T12:59:40.581Z,19.30
2017-10-03T13:02:08.559Z,19.40
2017-10-03T13:04:36.777Z,19.80
2017-10-03T13:07:04.280Z,19.80
2017-10-03T13:09:31.855Z,19.90
2017-10-03T13:11:59.404Z,20.10
2017-10-03T13:14:27.335Z,20.30
2017-10-03T13:16:54.805Z,20.40
2017-10-03T13:19:22.298Z,20.20
2017-10-03T13:21:49.932Z,20.10
2017-10-03T13:24:17.405Z,19.90
2017-10-03T13:26:45.358Z,19.60
2017-10-03T13:29:12.907Z,19.50
2017-10-03T13:31:40.367Z,19.30
2017-10-03T13:34:07.879Z,19.10
2017-10-03T13:36:35.465Z,18.90
2017-10-03T13:39:03.232Z,18.50
2017-10-03T13:41:31.875Z,17.90
2017-10-03T13:44:00.345Z,17.70
2017-10-03T13:46:28.201Z,17.70
2017-10-03T13:48:56.250Z,17.50
2017-10-03T13:51:24.270Z,17.40
2017-10-03T13:53:51.807Z,17.30
2017-10-03T13:56:19.679Z,17.20
2017-10-03T13:58:47.871Z,17.20
2017-10-03T14:01:16.183Z,17.10
2017-10-03T14:03:44.225Z,17.00
2017-10-03T14:06:11.707Z,17.10
2017-10-03T14:08:39.219Z,17.30
2017-10-03T14:11:06.761Z,17.60
2017-10-03T14:13:34.510Z,17.90
2017-10-03T14:16:02.349Z,18.30
2017-10-03T14:18:29.835Z,18.60
2017-10-03T14:20:57.876Z,18.90
2017-10-03T14:23:25.364Z,19.10
2017-10-03T14:25:55.249Z,19.40
2017-10-03T14:28:23.803Z,19.40
2017-10-03T14:30:51.853Z,19.40
2017-10-03T14:33:19.799Z,19.40
2017-10-03T14:35:47.342Z,19.30
2017-10-03T14:38:14.787Z,19.10
2017-10-03T14:40:43.777Z,18.50
2017-10-03T14:43:12.099Z,18.30
2017-10-03T14:45:39.779Z,18.30
2017-10-03T14:48:07.953Z,18.20
2017-10-03T14:50:36.931Z,18.10
2017-10-03T14:53:05.235Z,18.20
2017-10-03T14:55:33.392Z,18.10
2017-10-03T14:58:01.292Z,18.30
2017-10-03T15:00:29.096Z,18.50
2017-10-03T15:02:56.796Z,18.70
2017-10-03T15:05:25.087Z,19.20
2017-10-03T15:07:52.575Z,19.20
2017-10-03T15:10:20.084Z,19.50
2017-10-03T15:12:47.574Z,19.70
2017-10-03T15:15:16.343Z,19.80
2017-10-03T15:17:43.810Z,19.70
2017-10-03T15:20:11.291Z,19.90
2017-10-03T15:22:39.161Z,20.10
2017-10-03T15:25:06.612Z,19.90
2017-10-03T15:27:34.418Z,19.70
2017-10-03T15:30:02.943Z,19.50
2017-10-03T15:32:31.244Z,19.00
2017-10-03T15:34:58.683Z,19.00
2017-10-03T15:37:26.334Z,18.90
2017-10-03T15:39:53.785Z,18.70
2017-10-03T15:42:21.443Z,18.60
2017-10-03T15:44:48.893Z,18.60
2017-10-03T15:47:16.738Z,18.50
2017-10-03T15:49:44.217Z,18.40
2017-10-03T15:52:14.271Z,18.10
2017-10-03T15:54:41.798Z,18.10
2017-10-03T15:57:09.705Z,18.00
2017-10-03T15:59:37.162Z,17.90
2017-10-03T16:02:05.140Z,17.80
2017-10-03T16:04:32.712Z,17.70
2017-10-03T16:07:01.685Z,17.40
2017-10-03T16:09:29.186Z,17.40
2017-10-03T16:11:56.710Z,17.40
2017-10-03T16:14:25.792Z,17.40
2017-10-03T16:16:53.728Z,17.40
2017-10-03T16:19:21.186Z,17.50
2017-10-03T16:21:49.960Z,17.60
2017-10-03T16:24:17.496Z,17.60
2017-10-03T16:26:46.117Z,17.70
2017-10-03T16:29:14.158Z,17.70
2017-10-03T16:31:41.609Z,17.70
2017-10-03T16:34:09.132Z,17.70
2017-10-03T16:36:36.585Z,17.70
2017-10-03T16:39:04.186Z,17.70
2017-10-03T16:41:32.612Z,17.50
2017-10-03T16:44:00.181Z,17.40
2017-10-03T16:46:27.646Z,17.30
2017-10-03T16:48:55.533Z,17.20
2017-10-03T16:51:22.977Z,17.10
2017-10-03T16:53:50.795Z,17.10
2017-10-03T16:56:18.645Z,17.00
2017-10-03T16:58:46.617Z,17.00
2017-10-03T17:01:14.365Z,16.90
2017-10-03T17:03:42.120Z,16.80
2017-10-03T17:06:09.618Z,16.80
2017-10-03T17:08:38.644Z,16.70
2017-10-03T17:11:06.278Z,16.70
2017-10-03T17:13:33.845Z,16.60
2017-10-03T17:16:02.062Z,16.50
2017-10-03T17:18:29.526Z,16.50
2017-10-03T17:20:57.756Z,16.40
2017-10-03T17:23:25.211Z,16.40
2017-10-03T17:25:53.194Z,16.30
2017-10-03T17:28:20.673Z,16.30
2017-10-03T17:30:49.525Z,16.30
2017-10-03T17:33:17.012Z,16.30
2017-10-03T17:35:44.478Z,16.30
2017-10-03T17:38:12.045Z,16.30
2017-10-03T17:40:39.518Z,16.30
2017-10-03T17:43:08.017Z,16.20
2017-10-03T17:45:35.683Z,16.20
2017-10-03T17:48:05.442Z,16.20
2017-10-03T17:50:33.006Z,16.10
2017-10-03T17:53:01.482Z,16.10
2017-10-03T17:55:29.532Z,16.10
2017-10-03T17:57:57.558Z,16.00
2017-10-03T18:00:25.528Z,16.00
2017-10-03T18:02:53.794Z,16.00
2017-10-03T18:05:22.466Z,16.00
2017-10-03T18:07:51.696Z,16.00
2017-10-03T18:10:20.303Z,15.80
2017-10-03T18:12:48.066Z,15.80
2017-10-03T18:15:17.411Z,15.80
2017-10-03T18:17:46.628Z,15.60
2017-10-03T18:20:14.176Z,15.60
2017-10-03T18:22:41.754Z,15.60
2017-10-03T18:25:09.892Z,15.50
2017-10-03T18:27:38.347Z,15.40
2017-10-03T18:30:06.994Z,15.30
2017-10-03T18:32:34.867Z,15.30
2017-10-03T18:35:02.980Z,15.30
2017-10-03T18:37:30.531Z,15.20
2017-10-03T18:39:58.625Z,15.30
2017-10-03T18:42:27.383Z,15.30
2017-10-03T18:44:55.352Z,15.30
2017-10-03T18:47:40.608Z,15.30
2017-10-03T18:50:13.564Z,15.30
2017-10-03T18:52:41.427Z,15.30
2017-10-03T18:55:10.081Z,15.30
2017-10-03T18:57:38.463Z,15.20
2017-10-03T19:00:06.606Z,15.20
2017-10-03T19:02:35.486Z,15.20
2017-10-03T19:05:04.132Z,15.20
2017-10-03T19:07:32.125Z,15.10
2017-10-03T19:09:59.952Z,15.10
2017-10-03T19:12:28.620Z,15.10
2017-10-03T19:14:56.589Z,15.10
2017-10-03T19:17:25.237Z,15.10
2017-10-03T19:19:53.036Z,15.10
2017-10-03T19:22:21.046Z,15.10
2017-10-03T19:24:48.897Z,15.20
2017-10-03T19:27:17.563Z,15.20
2017-10-03T19:29:45.412Z,15.20
2017-10-03T19:32:13.657Z,15.10
2017-10-03T19:34:41.527Z,15.00
2017-10-03T19:37:09.474Z,15.00
2017-10-03T19:39:37.325Z,15.00
2017-10-03T19:42:05.178Z,14.90
2017-10-03T19:44:33.028Z,14.90
2017-10-03T19:47:02.803Z,14.90
2017-10-03T19:49:31.160Z,14.80
2017-10-03T19:51:58.651Z,14.80
2017-10-03T19:54:26.472Z,14.80
2017-10-03T19:56:55.250Z,14.70
2017-10-03T19:59:24.014Z,14.60
2017-10-03T20:01:52.483Z,14.60
2017-10-03T20:04:20.001Z,14.60
2017-10-03T20:06:47.454Z,14.50
2017-10-03T20:09:15.013Z,14.50
2017-10-03T20:11:42.539Z,14.50
2017-10-03T20:14:09.987Z,14.50
2017-10-03T20:16:37.852Z,14.50
2017-10-03T20:19:05.695Z,14.50
2017-10-03T20:21:33.178Z,14.50
2017-10-03T20:24:01.416Z,14.50
2017-10-03T20:26:30.113Z,14.50
2017-10-03T20:28:58.389Z,14.50
2017-10-03T20:31:26.674Z,14.50
2017-10-03T20:33:54.225Z,14.50
2017-10-03T20:36:21.768Z,14.50
2017-10-03T20:38:49.786Z,14.50
2017-10-03T20:41:18.606Z,14.40
2017-10-03T20:43:46.110Z,14.40
2017-10-03T20:46:13.571Z,14.40
2017-10-03T20:48:41.506Z,14.40
2017-10-03T20:51:09.868Z,14.40
2017-10-03T20:53:37.335Z,14.30
2017-10-03T20:56:05.052Z,14.30
2017-10-03T20:58:32.781Z,14.30
2017-10-03T21:01:01.515Z,14.20
2017-10-03T21:03:29.471Z,14.20
2017-10-03T21:05:56.963Z,14.20
2017-10-03T21:08:24.520Z,14.20
2017-10-03T21:10:52.003Z,14.10
2017-10-03T21:13:19.481Z,14.10
2017-10-03T21:15:47.926Z,14.10
2017-10-03T21:18:15.700Z,14.10
2017-10-03T21:20:43.145Z,14.10
2017-10-03T21:23:10.631Z,14.00
2017-10-03T21:25:38.915Z,14.00
2017-10-03T21:28:06.439Z,14.00
2017-10-03T21:30:34.783Z,13.90
2017-10-03T21:33:03.697Z,13.90
2017-10-03T21:35:32.788Z,13.90
2017-10-03T21:38:04.057Z,13.80
2017-10-03T21:40:33.011Z,13.90
2017-10-03T21:43:16.451Z,13.80
2017-10-03T21:45:44.250Z,13.80
2017-10-03T21:48:12.170Z,13.80
2017-10-03T21:50:39.629Z,13.70
2017-10-03T21:53:07.735Z,13.70
2017-10-03T21:55:35.641Z,13.70
2017-10-03T21:58:04.513Z,13.70
2017-10-03T22:00:32.216Z,13.70
2017-10-03T22:03:00.089Z,13.80
2017-10-03T22:05:28.552Z,13.80
2017-10-03T22:07:56.043Z,13.80
2017-10-03T22:10:24.527Z,13.80
2017-10-03T22:12:52.030Z,13.80
2017-10-03T22:15:19.951Z,13.80
2017-10-03T22:17:48.086Z,13.80
2017-10-03T22:20:16.453Z,13.70
2017-10-03T22:22:43.936Z,13.70
2017-10-03T22:25:11.823Z,13.70
2017-10-03T22:27:39.901Z,13.60
2017-10-03T22:30:07.396Z,13.60
2017-10-03T22:32:35.506Z,13.60
2017-10-03T22:35:03.026Z,13.60
2017-10-03T22:37:30.519Z,13.60
2017-10-03T22:39:58.551Z,13.60
2017-10-03T22:42:26.060Z,13.60
2017-10-03T22:44:53.521Z,13.60
2017-10-03T22:47:21.870Z,13.70
2017-10-03T22:49:49.324Z,13.70
2017-10-03T22:52:22.954Z,13.70
2017-10-03T22:54:51.996Z,13.70
2017-10-03T22:57:19.831Z,13.70
2017-10-03T22:59:47.282Z,13.70
2017-10-03T23:02:15.287Z,13.70
2017-10-03T23:04:43.510Z,13.70
2017-10-03T23:07:10.972Z,13.70
2017-10-03T23:09:38.424Z,13.70
2017-10-03T23:12:06.751Z,13.70
2017-10-03T23:14:34.206Z,13.80
2017-10-03T23:17:01.981Z,13.80
2017-10-03T23:19:30.543Z,13.80
2017-10-03T23:21:58.774Z,13.70
2017-10-03T23:24:26.452Z,13.70
2017-10-03T23:26:55.480Z,13.70
2017-10-03T23:29:22.934Z,13.70
2017-10-03T23:31:51.850Z,13.70
2017-10-03T23:34:20.081Z,13.70
2017-10-03T23:36:47.540Z,13.60
2017-10-03T23:39:15.921Z,13.70
2017-10-03T23:41:43.419Z,13.60
2017-10-03T23:44:10.873Z,13.60
2017-10-03T23:46:38.510Z,13.60
2017-10-03T23:49:06.287Z,13.70
2017-10-03T23:51:34.523Z,13.60
2017-10-03T23:54:02.003Z,13.60
2017-10-03T23:56:29.832Z,13.60
2017-10-03T23:58:58.446Z,13.60
